Time;durP1;ratioP1;P1;durP2;ratioP2;P2;SDS_P1;SDS_P2;PMS_P1;PMS_P2;Temp;Humidity;BMP_temperature;BMP_pressure;BME280_temperature;BME280_humidity;BME280_pressure;Samples;Min_cycle;Max_cycle;Signal;HPM_P1;HPM_P2
2022/12/13 00:01:25;;;;;;;;;20.25;15.00;;;;;2.21;100.00;100431.59;5096359;27;45350;-74
2022/12/13 00:03:55;;;;;;;;;16.00;13.50;;;;;2.20;100.00;100437.63;5078686;27;45434;-73
2022/12/13 00:06:20;;;;;;;;;19.25;12.25;;;;;2.18;100.00;100425.34;5096499;27;45618;-75
2022/12/13 00:08:45;;;;;;;;;18.75;14.75;;;;;2.18;100.00;100426.25;5048591;28;47823;-73
2022/12/13 00:11:12;;;;;;;;;28.75;16.00;;;;;2.18;100.00;100420.16;5091515;27;45462;-73
2022/12/13 00:13:39;;;;;;;;;5.00;5.00;;;;;2.18;100.00;100426.25;5096219;27;45434;-74
2022/12/13 00:16:06;;;;;;;;;27.50;18.25;;;;;2.18;100.00;100414.94;5077676;27;45296;-73
2022/12/13 00:18:32;;;;;;;;;18.25;13.00;;;;;2.17;100.00;100415.78;5089814;27;45900;-74
2022/12/13 00:20:57;;;;;;;;;16.50;14.25;;;;;2.16;100.00;100414.00;5073359;27;45408;-72
2022/12/13 00:23:23;;;;;;;;;12.50;12.50;;;;;2.15;100.00;100413.13;5096168;27;45516;-73
2022/12/13 00:25:48;;;;;;;;;19.25;13.00;;;;;2.15;100.00;100414.84;5096291;27;45575;-73
2022/12/13 00:28:14;;;;;;;;;17.75;11.75;;;;;2.18;100.00;100418.44;5086671;27;45552;-74
2022/12/13 00:30:40;;;;;;;;;15.25;9.50;;;;;2.15;100.00;100415.72;5077993;27;45399;-73
2022/12/13 00:33:06;;;;;;;;;18.50;11.50;;;;;2.15;100.00;100412.25;5096236;27;45282;-73
2022/12/13 00:35:32;;;;;;;;;20.75;17.00;;;;;2.16;100.00;100406.19;5078727;27;45271;-73
2022/12/13 00:37:57;;;;;;;;;15.25;10.25;;;;;2.13;100.00;100398.25;5095768;27;46734;-73
2022/12/13 00:40:23;;;;;;;;;13.75;13.75;;;;;2.14;100.00;100400.06;5080863;27;45481;-74
2022/12/13 00:42:48;;;;;;;;;11.50;10.00;;;;;2.14;100.00;100408.75;5081510;27;45463;-74
2022/12/13 00:45:14;;;;;;;;;20.75;15.25;;;;;2.11;100.00;100398.19;5098806;27;45698;-73
2022/12/13 00:47:39;;;;;;;;;19.00;14.25;;;;;2.14;100.00;100406.16;5078125;27;46950;-73
2022/12/13 00:50:05;;;;;;;;;24.50;15.25;;;;;2.09;100.00;100405.97;5096448;27;46445;-73
2022/12/13 00:52:33;;;;;;;;;18.50;15.00;;;;;2.11;100.00;100403.41;5097980;27;45433;-73
2022/12/13 00:54:58;;;;;;;;;19.00;14.00;;;;;2.07;100.00;100398.91;5074590;27;45375;-74
2022/12/13 00:57:23;;;;;;;;;17.25;12.00;;;;;2.06;100.00;100405.84;5100088;27;45587;-73
2022/12/13 00:59:49;;;;;;;;;20.75;14.50;;;;;2.07;100.00;100410.22;5094026;27;45596;-74
2022/12/13 01:02:14;;;;;;;;;18.25;14.50;;;;;2.04;100.00;100399.69;5099689;27;45370;-74
2022/12/13 01:04:40;;;;;;;;;19.75;13.75;;;;;2.05;100.00;100418.81;5093739;27;45313;-73
2022/12/13 01:07:05;;;;;;;;;25.50;17.75;;;;;2.04;100.00;100411.81;5099758;27;45587;-74
2022/12/13 01:09:32;;;;;;;;;18.00;15.50;;;;;2.03;100.00;100402.25;5099462;27;45908;-74
2022/12/13 01:11:59;;;;;;;;;22.00;13.75;;;;;2.02;100.00;100408.25;5081346;27;45577;-73
2022/12/13 01:14:25;;;;;;;;;18.00;12.75;;;;;1.97;100.00;100404.59;5080399;27;45267;-74
2022/12/13 01:16:54;;;;;;;;;15.25;12.50;;;;;1.93;100.00;100398.41;5078975;27;46897;-74
2022/12/13 01:19:23;;;;;;;;;10.25;8.25;;;;;1.97;100.00;100408.09;5092137;27;45519;-74
2022/12/13 01:21:49;;;;;;;;;20.50;11.25;;;;;1.96;100.00;100406.31;5067026;27;45521;-74
2022/12/13 01:24:19;;;;;;;;;13.50;12.00;;;;;1.95;100.00;100388.91;5081091;27;45556;-74
2022/12/13 01:26:44;;;;;;;;;20.25;14.25;;;;;1.94;100.00;100396.69;5099140;27;45413;-73
2022/12/13 01:29:10;;;;;;;;;19.50;16.00;;;;;1.96;100.00;100400.22;5099384;27;45460;-74
2022/12/13 01:31:40;;;;;;;;;15.50;11.50;;;;;1.94;100.00;100402.78;5099459;27;45433;-73
2022/12/13 01:34:09;;;;;;;;;15.25;10.00;;;;;1.95;100.00;100407.13;5099015;27;45488;-73
2022/12/13 01:36:35;;;;;;;;;14.75;8.50;;;;;1.93;100.00;100392.31;5080136;27;47362;-74
2022/12/13 01:39:00;;;;;;;;;15.25;10.00;;;;;1.94;100.00;100396.69;5072823;27;45446;-74
2022/12/13 01:41:27;;;;;;;;;13.00;13.00;;;;;1.92;100.00;100396.63;5098947;27;45439;-74
2022/12/13 01:43:59;;;;;;;;;19.25;16.50;;;;;1.94;100.00;100396.69;5099407;27;45428;-73
2022/12/13 01:46:25;;;;;;;;;16.75;10.00;;;;;1.91;100.00;100392.22;5093556;27;46579;-74
2022/12/13 01:49:01;;;;;;;;;20.75;14.75;;;;;1.95;100.00;100385.44;5096717;27;45533;-73
2022/12/13 01:51:38;;;;;;;;;14.00;10.00;;;;;1.94;100.00;100388.88;5078870;27;45375;-74
2022/12/13 01:54:05;;;;;;;;;13.50;11.50;;;;;1.91;100.00;100394.81;5080022;27;45386;-73
2022/12/13 01:56:35;;;;;;;;;17.00;13.50;;;;;1.93;100.00;100392.31;5072350;27;46534;-74
2022/12/13 01:59:02;;;;;;;;;14.75;11.25;;;;;1.94;100.00;100405.38;5061423;27;45526;-74
2022/12/13 02:01:28;;;;;;;;;13.50;9.50;;;;;1.94;100.00;100410.59;5091688;27;45498;-74
2022/12/13 02:03:53;;;;;;;;;19.25;10.75;;;;;1.91;100.00;100404.34;5093751;27;45504;-74
2022/12/13 02:06:27;;;;;;;;;16.75;13.00;;;;;1.89;100.00;100403.44;5097976;27;46535;-73
2022/12/13 02:08:53;;;;;;;;;10.00;8.75;;;;;1.89;100.00;100408.63;5097901;27;45442;-74
2022/12/13 02:11:18;;;;;;;;;15.50;12.25;;;;;1.91;100.00;100404.34;5079456;27;45397;-74
2022/12/13 02:13:43;;;;;;;;;12.00;7.50;;;;;1.90;100.00;100405.19;5095701;27;45486;-74
2022/12/13 02:16:35;;;;;;;;;12.50;10.00;;;;;1.89;100.00;100406.91;5094717;27;47889;-73
2022/12/13 02:19:31;;;;;;;;;15.00;10.00;;;;;1.89;100.00;100411.22;5093237;27;45366;-74
2022/12/13 02:22:14;;;;;;;;;17.50;9.25;;;;;1.88;100.00;100404.25;5096140;27;45345;-74
2022/12/13 02:25:02;;;;;;;;;15.00;13.00;;;;;1.88;100.00;100406.88;5076403;27;45514;-73
2022/12/13 02:27:32;;;;;;;;;14.75;9.50;;;;;1.86;100.00;100396.38;5090937;27;45732;-74
2022/12/13 02:30:25;;;;;;;;;13.00;10.25;;;;;1.87;100.00;100397.28;5073017;27;45504;-73
2022/12/13 02:33:15;;;;;;;;;11.00;7.75;;;;;1.88;100.00;100401.66;5073274;27;45573;-73
2022/12/13 02:35:57;;;;;;;;;12.00;9.50;;;;;1.86;100.00;100392.88;5039791;27;45575;-73
2022/12/13 02:38:38;;;;;;;;;13.50;9.50;;;;;1.87;100.00;100392.06;5064722;28;46564;-74
2022/12/13 02:41:16;;;;;;;;;16.50;10.50;;;;;1.88;100.00;100389.53;5059054;28;45498;-74
2022/12/13 02:43:58;;;;;;;;;11.25;8.25;;;;;1.90;100.00;100395.66;5060768;28;45221;-73
2022/12/13 02:46:26;;;;;;;;;13.25;7.25;;;;;1.91;100.00;100392.22;5059921;28;45368;-74
2022/12/13 02:48:53;;;;;;;;;8.25;4.50;;;;;1.92;100.00;100401.84;5054430;28;47010;-73
2022/12/13 02:51:20;;;;;;;;;12.50;9.75;;;;;1.92;100.00;100396.63;5047106;28;45738;-74
2022/12/13 02:53:45;;;;;;;;;11.00;11.00;;;;;1.89;100.00;100391.28;5055296;28;45258;-73
2022/12/13 02:56:12;;;;;;;;;27.75;9.75;;;;;1.96;100.00;100397.63;5056460;28;45625;-74
2022/12/13 02:58:46;;;;;;;;;13.00;10.50;;;;;1.95;100.00;100394.13;5050322;28;46708;-73
2022/12/13 03:01:48;;;;;;;;;18.00;10.00;;;;;1.96;100.00;100387.19;5051965;28;45662;-74
2022/12/13 03:06:28;;;;;;;;;15.75;11.25;;;;;1.96;100.00;100384.59;5049763;28;45442;-74
2022/12/13 03:07:29;;;;;;;;;12.25;9.50;;;;;1.95;100.00;100382.81;5050028;28;45378;-73
2022/12/13 03:10:07;;;;;;;;;16.75;8.25;;;;;1.96;100.00;100379.38;5064888;28;45511;-74
2022/12/13 03:15:30;;;;;;;;;11.00;10.25;;;;;1.95;100.00;100375.03;5057762;28;45433;-74
2022/12/13 03:18:14;;;;;;;;;15.50;10.50;;;;;1.95;100.00;100369.81;5056380;28;45927;-74
2022/12/13 03:20:39;;;;;;;;;14.00;9.50;;;;;1.93;100.00;100367.16;5054537;28;45848;-73
2022/12/13 03:23:04;;;;;;;;;14.50;10.00;;;;;1.92;100.00;100359.25;5057902;28;45343;-73
2022/12/13 03:25:30;;;;;;;;;18.00;12.75;;;;;1.92;100.00;100356.66;5056282;28;45609;-72
2022/12/13 03:27:56;;;;;;;;;15.25;9.25;;;;;1.89;100.00;100352.25;5056077;28;45338;-74
2022/12/13 03:30:21;;;;;;;;;23.00;13.00;;;;;1.91;100.00;100355.78;5056974;28;45403;-74
2022/12/13 03:32:46;;;;;;;;;13.25;10.50;;;;;1.89;100.00;100356.56;5068181;28;45252;-74
2022/12/13 03:35:12;;;;;;;;;13.00;10.00;;;;;1.85;100.00;100358.16;5070592;28;45307;-73
2022/12/13 03:37:37;;;;;;;;;21.00;12.25;;;;;1.85;100.00;100355.56;5074866;27;45433;-74
2022/12/13 03:40:03;;;;;;;;;18.00;11.00;;;;;1.84;100.00;100359.88;5080113;27;47634;-74
2022/12/13 03:42:29;;;;;;;;;21.25;12.00;;;;;1.83;100.00;100349.41;5078904;27;46174;-74
2022/12/13 03:44:54;;;;;;;;;15.50;9.00;;;;;1.83;100.00;100358.09;5074241;27;45699;-73
2022/12/13 03:47:20;;;;;;;;;21.00;12.25;;;;;1.83;100.00;100359.81;5072745;27;45527;-73
2022/12/13 03:49:45;;;;;;;;;12.25;9.00;;;;;1.80;100.00;100355.38;5092993;27;46679;-74
2022/12/13 03:52:10;;;;;;;;;16.75;13.50;;;;;1.82;100.00;100352.84;5093154;27;45344;-73
2022/12/13 03:54:36;;;;;;;;;10.75;10.75;;;;;1.80;100.00;100346.69;5096986;27;45424;-74
2022/12/13 03:57:01;;;;;;;;;22.25;15.00;;;;;1.78;100.00;100346.63;5096622;27;45519;-73
2022/12/13 03:59:26;;;;;;;;;16.00;12.00;;;;;1.78;100.00;100351.84;5094269;27;46650;-74
2022/12/13 04:01:52;;;;;;;;;14.50;13.25;;;;;1.76;100.00;100356.09;5077904;27;48435;-74
2022/12/13 04:04:17;;;;;;;;;13.75;11.00;;;;;1.76;100.00;100366.53;5096310;27;45295;-75
2022/12/13 04:06:43;;;;;;;;;15.50;14.25;;;;;1.71;100.00;100359.38;5090080;27;45423;-74
2022/12/13 04:09:08;;;;;;;;;15.50;12.00;;;;;1.72;100.00;100369.81;5095924;27;46520;-74
2022/12/13 04:14:17;;;;;;;;;21.25;13.00;;;;;1.69;100.00;100355.78;5092844;27;45532;-74
2022/12/13 04:16:43;;;;;;;;;23.50;15.75;;;;;1.69;100.00;100361.88;5099222;27;45648;-73
2022/12/13 04:19:09;;;;;;;;;17.50;10.25;;;;;1.66;100.00;100358.28;5081459;27;46080;-73
2022/12/13 04:21:34;;;;;;;;;18.50;11.75;;;;;1.69;100.00;100361.00;5098922;27;50066;-74
2022/12/13 04:23:59;;;;;;;;;12.75;8.25;;;;;1.67;100.00;100352.25;5097949;27;45314;-74
2022/12/13 04:26:25;;;;;;;;;15.25;13.00;;;;;1.65;100.00;100356.50;5097990;27;45491;-73
2022/12/13 04:28:50;;;;;;;;;13.25;11.75;;;;;1.64;100.00;100360.81;5064343;27;47257;-74
2022/12/13 04:31:15;;;;;;;;;16.00;10.25;;;;;1.64;100.00;100350.41;5099048;27;47630;-73
2022/12/13 04:33:41;;;;;;;;;16.50;12.50;;;;;1.65;100.00;100347.00;5099098;27;45603;-74
2022/12/13 04:36:07;;;;;;;;;14.50;10.00;;;;;1.61;100.00;100328.59;5099164;27;46794;-73
2022/12/13 04:38:32;;;;;;;;;16.00;10.00;;;;;1.61;100.00;100345.09;5096553;27;46050;-74
2022/12/13 04:41:07;;;;;;;;;23.50;13.50;;;;;1.57;100.00;100340.59;5093193;27;45361;-73
2022/12/13 04:43:33;;;;;;;;;17.75;12.50;;;;;1.61;100.00;100339.00;5078904;27;46954;-73
2022/12/13 04:45:59;;;;;;;;;16.50;12.25;;;;;1.53;100.00;100328.28;5077599;27;45553;-74
2022/12/13 04:48:24;;;;;;;;;13.50;12.75;;;;;1.52;100.00;100316.13;5091098;27;47970;-74
2022/12/13 04:50:49;;;;;;;;;16.25;12.75;;;;;1.55;100.00;100332.75;5090899;27;45396;-74
2022/12/13 04:53:15;;;;;;;;;18.00;12.75;;;;;1.51;100.00;100330.84;5094444;27;45518;-73
2022/12/13 04:55:41;;;;;;;;;14.75;10.00;;;;;1.54;100.00;100337.88;5078220;27;45556;-74
2022/12/13 04:58:06;;;;;;;;;14.75;12.00;;;;;1.55;100.00;100334.47;5075826;27;46390;-74
2022/12/13 05:00:31;;;;;;;;;21.00;16.75;;;;;1.55;100.00;100324.94;5077144;27;47774;-74
2022/12/13 05:02:57;;;;;;;;;18.50;14.00;;;;;1.55;100.00;100330.13;5098030;27;45437;-74
2022/12/13 05:05:22;;;;;;;;;15.50;12.00;;;;;1.55;100.00;100331.84;5099364;27;45395;-74
2022/12/13 05:07:47;;;;;;;;;15.25;13.50;;;;;1.54;100.00;100332.66;5098316;27;46025;-75
2022/12/13 05:10:13;;;;;;;;;16.50;12.75;;;;;1.56;100.00;100331.03;5099066;27;51114;-73
2022/12/13 05:12:38;;;;;;;;;23.75;13.25;;;;;1.59;100.00;100320.72;5079922;27;45902;-73
2022/12/13 05:15:04;;;;;;;;;18.25;14.00;;;;;1.62;100.00;100323.44;5097903;27;45430;-74
2022/12/13 05:17:30;;;;;;;;;19.00;13.50;;;;;1.62;100.00;100322.56;5080602;27;46704;-73
2022/12/13 05:19:55;;;;;;;;;22.75;19.50;;;;;1.62;100.00;100315.66;5061307;27;45628;-74
2022/12/13 05:22:21;;;;;;;;;11.00;10.25;;;;;1.65;100.00;100322.66;5080020;27;45363;-74
2022/12/13 05:24:47;;;;;;;;;17.50;10.50;;;;;1.64;100.00;100321.78;5096963;27;45234;-73
2022/12/13 05:27:12;;;;;;;;;22.00;13.25;;;;;1.64;100.00;100324.38;5079244;27;46910;-73
2022/12/13 05:29:38;;;;;;;;;16.25;16.25;;;;;1.63;100.00;100320.00;5098696;27;45299;-74
2022/12/13 05:32:03;;;;;;;;;14.25;14.25;;;;;1.60;100.00;100325.13;5098988;27;45473;-74
2022/12/13 05:34:29;;;;;;;;;19.25;12.00;;;;;1.60;100.00;100324.19;5080662;27;45588;-73
2022/12/13 05:36:54;;;;;;;;;17.25;14.25;;;;;1.56;100.00;100331.03;5098425;27;46764;-73
2022/12/13 05:39:20;;;;;;;;;19.00;17.50;;;;;1.56;100.00;100334.50;5091568;27;47403;-74
2022/12/13 05:41:45;;;;;;;;;16.00;13.25;;;;;1.55;100.00;100344.88;5067056;27;45348;-74
2022/12/13 05:44:12;;;;;;;;;15.25;11.50;;;;;1.49;100.00;100340.31;5087515;27;45344;-75
2022/12/13 05:46:37;;;;;;;;;13.00;10.00;;;;;1.49;100.00;100345.50;5093108;27;46673;-74
2022/12/13 05:49:03;;;;;;;;;15.50;13.00;;;;;1.49;100.00;100347.19;5070315;27;45492;-74
2022/12/13 05:51:28;;;;;;;;;14.75;13.00;;;;;1.46;100.00;100334.97;5091688;27;45328;-75
2022/12/13 05:53:54;;;;;;;;;16.75;15.50;;;;;1.49;100.00;100352.41;5094540;27;45565;-76
2022/12/13 05:56:19;;;;;;;;;18.00;12.25;;;;;1.46;100.00;100342.78;5087787;27;47208;-75
2022/12/13 05:58:45;;;;;;;;;21.25;16.50;;;;;1.44;100.00;100340.94;5086735;27;45503;-75
2022/12/13 06:01:12;;;;;;;;;22.75;13.00;;;;;1.46;100.00;100350.59;5097343;27;45391;-75
2022/12/13 06:03:38;;;;;;;;;21.25;15.50;;;;;1.46;100.00;100352.31;5075710;27;45279;-74
2022/12/13 06:06:05;;;;;;;;;15.50;13.00;;;;;1.46;100.00;100349.69;5078899;27;46127;-74
2022/12/13 06:08:31;;;;;;;;;22.00;15.75;;;;;1.46;100.00;100347.09;5075884;27;45474;-76
2022/12/13 06:10:58;;;;;;;;;22.00;17.25;;;;;1.46;100.00;100360.09;5092741;27;45443;-74
2022/12/13 06:13:24;;;;;;;;;16.00;12.25;;;;;1.44;100.00;100370.47;5079207;27;45247;-75
2022/12/13 06:15:50;;;;;;;;;22.00;15.25;;;;;1.48;100.00;100366.25;5096544;27;47200;-73
2022/12/13 06:18:15;;;;;;;;;21.00;10.00;;;;;1.47;100.00;100367.97;5096038;27;45214;-73
2022/12/13 06:20:40;;;;;;;;;19.75;15.50;;;;;1.48;100.00;100369.72;5092632;27;45537;-74
2022/12/13 06:23:06;;;;;;;;;15.00;14.00;;;;;1.48;100.00;100381.84;5096008;27;45718;-75
2022/12/13 06:25:31;;;;;;;;;16.25;10.00;;;;;1.49;100.00;100379.34;5090323;27;46106;-74
2022/12/13 06:27:56;;;;;;;;;21.00;16.75;;;;;1.50;100.00;100367.22;5074978;27;45289;-76
2022/12/13 06:30:22;;;;;;;;;19.00;15.00;;;;;1.48;100.00;100371.44;5090666;27;45410;-75
2022/12/13 06:32:50;;;;;;;;;13.00;13.00;;;;;1.52;100.00;100374.22;5097643;27;45566;-75
2022/12/13 06:35:16;;;;;;;;;20.50;14.50;;;;;1.53;100.00;100364.72;5091661;27;48468;-75
2022/12/13 06:37:41;;;;;;;;;16.50;12.75;;;;;1.52;100.00;100369.03;5094628;27;45232;-74
2022/12/13 06:40:07;;;;;;;;;15.25;12.25;;;;;1.55;100.00;100368.28;5085524;27;45513;-74
2022/12/13 06:42:32;;;;;;;;;16.75;13.00;;;;;1.51;100.00;100356.84;5076844;27;45493;-73
2022/12/13 06:44:58;;;;;;;;;19.00;13.25;;;;;1.56;100.00;100362.25;5087100;27;48451;-74
2022/12/13 06:47:24;;;;;;;;;22.25;16.00;;;;;1.56;100.00;100351.84;5090573;27;45494;-74
2022/12/13 06:49:50;;;;;;;;;19.00;13.00;;;;;1.54;100.00;100361.28;5094007;27;45517;-73
2022/12/13 06:52:15;;;;;;;;;17.25;12.00;;;;;1.57;100.00;100351.00;5095474;27;45479;-73
2022/12/13 06:54:42;;;;;;;;;29.75;18.25;;;;;1.55;100.00;100348.34;5095842;27;46324;-75
2022/12/13 06:57:08;;;;;;;;;24.50;17.75;;;;;1.53;100.00;100349.97;5078143;27;47140;-74
2022/12/13 06:59:33;;;;;;;;;23.75;20.25;;;;;1.52;100.00;100348.22;5077481;27;45501;-78
2022/12/13 07:01:59;;;;;;;;;19.00;16.00;;;;;1.54;100.00;100341.34;5072883;27;45744;-75
2022/12/13 07:04:24;;;;;;;;;24.75;17.25;;;;;1.57;100.00;100340.59;5074658;27;56913;-74
2022/12/13 07:06:49;;;;;;;;;25.25;12.75;;;;;1.61;100.00;100346.81;5074171;27;45418;-74
2022/12/13 07:09:15;;;;;;;;;16.50;12.25;;;;;1.62;100.00;100344.25;5088911;27;51490;-74
2022/12/13 07:11:40;;;;;;;;;26.50;16.50;;;;;1.62;100.00;100330.38;5092296;27;51654;-76
2022/12/13 07:14:06;;;;;;;;;14.50;12.25;;;;;1.66;100.00;100340.09;5095624;27;45770;-74
2022/12/13 07:16:31;;;;;;;;;22.25;13.00;;;;;1.67;100.00;100331.44;5093052;27;47098;-73
2022/12/13 07:18:58;;;;;;;;;20.50;18.00;;;;;1.70;100.00;100344.53;5086903;27;45527;-74
2022/12/13 07:21:24;;;;;;;;;19.75;15.00;;;;;1.68;100.00;100343.63;5079579;27;46274;-74
2022/12/13 07:23:50;;;;;;;;;18.50;13.25;;;;;1.70;100.00;100344.53;5069127;27;47598;-74
2022/12/13 07:26:16;;;;;;;;;13.75;12.00;;;;;1.71;100.00;100347.22;5085080;27;45450;-72
2022/12/13 07:28:42;;;;;;;;;19.00;13.00;;;;;1.70;100.00;100347.16;5069776;27;45573;-72
2022/12/13 07:31:08;;;;;;;;;18.50;15.75;;;;;1.72;100.00;100362.00;5067130;27;45699;-72
2022/12/13 07:33:34;;;;;;;;;21.50;16.75;;;;;1.70;100.00;100352.34;5080845;27;45949;-72
2022/12/13 07:36:02;;;;;;;;;21.75;17.50;;;;;1.71;100.00;100365.44;5080120;27;46855;-73
2022/12/13 07:38:27;;;;;;;;;17.25;14.75;;;;;1.70;100.00;100361.03;5082843;27;46109;-72
2022/12/13 07:40:55;;;;;;;;;27.25;17.50;;;;;1.70;100.00;100360.16;5066220;27;47867;-72
2022/12/13 07:43:21;;;;;;;;;22.25;19.25;;;;;1.71;100.00;100368.06;5068779;27;45848;-71
2022/12/13 07:45:46;;;;;;;;;21.50;18.25;;;;;1.69;100.00;100372.28;5063704;27;45464;-74
2022/12/13 07:48:12;;;;;;;;;22.50;16.00;;;;;1.72;100.00;100385.44;5084691;27;54508;-74
2022/12/13 07:50:37;;;;;;;;;18.75;17.25;;;;;1.68;100.00;100378.31;5089496;27;46386;-73
2022/12/13 07:53:07;;;;;;;;;28.00;20.75;;;;;1.70;100.00;100383.59;5087795;27;46181;-73
2022/12/13 07:55:33;;;;;;;;;23.00;15.25;;;;;1.69;100.00;100394.81;5089984;27;45536;-73
2022/12/13 07:58:12;;;;;;;;;21.25;18.50;;;;;1.71;100.00;100401.00;5087035;27;45467;-73
2022/12/13 08:00:39;;;;;;;;;19.50;15.00;;;;;1.70;100.00;100407.88;5079135;27;45580;-72
2022/12/13 08:03:05;;;;;;;;;25.25;17.75;;;;;1.71;100.00;100401.88;5070072;28;45487;-72
2022/12/13 08:05:31;;;;;;;;;20.25;16.25;;;;;1.68;100.00;100401.75;5087919;27;45456;-73
2022/12/13 08:07:56;;;;;;;;;22.50;18.50;;;;;1.68;100.00;100401.75;5088584;27;45616;-72
2022/12/13 08:10:22;;;;;;;;;28.25;18.25;;;;;1.71;100.00;100403.59;5090690;27;45624;-73
2022/12/13 08:12:48;;;;;;;;;21.00;14.00;;;;;1.69;100.00;100392.22;5084317;27;45964;-72
2022/12/13 08:15:14;;;;;;;;;20.75;18.00;;;;;1.69;100.00;100400.91;5067144;27;45442;-72
2022/12/13 08:17:40;;;;;;;;;25.50;17.25;;;;;1.70;100.00;100394.00;5083479;27;45554;-71
2022/12/13 08:20:05;;;;;;;;;33.25;24.50;;;;;1.70;100.00;100400.09;5076557;27;45630;-72
2022/12/13 08:22:31;;;;;;;;;20.00;16.00;;;;;1.67;100.00;100410.38;5075700;27;46890;-71
2022/12/13 08:24:56;;;;;;;;;25.75;16.00;;;;;1.69;100.00;100411.31;5092161;27;45303;-73
2022/12/13 08:27:22;;;;;;;;;25.25;19.50;;;;;1.68;100.00;100414.75;5074213;27;45217;-70
2022/12/13 08:29:47;;;;;;;;;19.50;13.50;;;;;1.68;100.00;100400.88;5088750;27;45606;-73
2022/12/13 08:32:13;;;;;;;;;30.50;21.75;;;;;1.68;100.00;100408.66;5093295;27;45710;-73
2022/12/13 08:34:38;;;;;;;;;25.50;17.00;;;;;1.66;100.00;100406.03;5089228;27;46040;-72
2022/12/13 08:37:04;;;;;;;;;26.00;21.75;;;;;1.69;100.00;100413.03;5068318;27;46978;-72
2022/12/13 08:39:34;;;;;;;;;31.25;17.00;;;;;1.69;100.00;100400.91;5090204;27;45707;-73
2022/12/13 08:42:00;;;;;;;;;26.00;20.00;;;;;1.69;100.00;100403.53;5072382;27;46474;-73
2022/12/13 08:44:25;;;;;;;;;33.25;21.75;;;;;1.72;100.00;100406.25;5071065;27;45547;-71
2022/12/13 08:46:50;;;;;;;;;23.25;16.50;;;;;1.74;100.00;100416.72;5075806;27;45454;-72
2022/12/13 08:49:16;;;;;;;;;24.00;21.00;;;;;1.77;100.00;100424.66;5094061;27;45667;-72
2022/12/13 08:51:41;;;;;;;;;27.50;22.00;;;;;1.77;100.00;100419.47;5085598;27;45662;-73
2022/12/13 08:54:06;;;;;;;;;29.00;19.50;;;;;1.81;100.00;100414.44;5089898;27;45515;-73
2022/12/13 08:56:32;;;;;;;;;25.25;18.50;;;;;1.87;100.00;100420.72;5093862;27;45430;-72
2022/12/13 08:58:57;;;;;;;;;21.50;20.50;;;;;1.90;100.00;100426.91;5091038;27;46656;-72
2022/12/13 09:01:23;;;;;;;;;27.75;25.75;;;;;1.93;100.00;100429.63;5089123;27;45985;-72
2022/12/13 09:03:48;;;;;;;;;26.00;19.00;;;;;1.93;100.00;100419.22;5075795;27;51097;-73
2022/12/13 09:06:15;;;;;;;;;24.25;21.75;;;;;1.94;100.00;100410.59;5088811;27;46554;-74
2022/12/13 09:08:41;;;;;;;;;26.75;17.75;;;;;1.96;100.00;100401.09;5076067;27;45628;-71
2022/12/13 09:11:08;;;;;;;;;23.50;18.25;;;;;1.97;100.00;100400.31;5092237;27;45888;-73
2022/12/13 09:13:36;;;;;;;;;29.75;25.25;;;;;1.98;100.00;100396.84;5076106;27;45676;-75
2022/12/13 09:16:29;;;;;;;;;26.25;18.75;;;;;1.99;100.00;100392.53;5073753;27;45695;-74
2022/12/13 09:18:54;;;;;;;;;22.50;20.00;;;;;1.96;100.00;100398.50;5071842;27;45695;-73
2022/12/13 09:21:20;;;;;;;;;22.50;18.25;;;;;2.00;100.00;100400.41;5087270;27;45718;-73
2022/12/13 09:23:45;;;;;;;;;24.25;20.25;;;;;2.00;99.73;100392.59;5093281;27;45455;-74
2022/12/13 09:26:12;;;;;;;;;20.00;17.50;;;;;2.01;100.00;100383.06;5087873;27;45319;-74
2022/12/13 09:28:38;;;;;;;;;19.75;18.50;;;;;2.03;100.00;100397.94;5097039;27;45471;-74
2022/12/13 09:31:17;;;;;;;;;25.00;18.00;;;;;2.04;100.00;100394.47;5066152;27;47326;-73
2022/12/13 09:33:44;;;;;;;;;27.00;21.00;;;;;2.06;100.00;100389.31;5097377;27;45494;-73
2022/12/13 09:36:12;;;;;;;;;35.25;26.75;;;;;2.05;99.91;100384.97;5079343;27;45636;-71
2022/12/13 09:38:37;;;;;;;;;29.25;18.50;;;;;2.08;99.83;100396.38;5201300;22;45653;-73
2022/12/13 09:41:12;;;;;;;;;30.00;22.50;;;;;2.10;100.00;100397.31;5059591;28;46328;-72
2022/12/13 09:43:39;;;;;;;;;23.25;17.50;;;;;2.10;99.73;100402.53;5047708;28;45485;-72
2022/12/13 09:46:06;;;;;;;;;24.75;16.00;;;;;2.15;99.90;100400.09;5044281;28;45370;-72
2022/12/13 09:48:32;;;;;;;;;19.50;14.00;;;;;2.15;99.89;100399.22;5061702;28;47041;-73
2022/12/13 09:50:58;;;;;;;;;25.00;21.25;;;;;2.16;100.00;100387.97;5038969;28;47354;-74
2022/12/13 09:53:24;;;;;;;;;22.75;20.75;;;;;2.21;99.78;100389.03;5057493;28;45538;-73
2022/12/13 09:55:51;;;;;;;;;23.25;21.00;;;;;2.24;99.79;100390.03;5056459;28;45927;-73
2022/12/13 09:58:20;;;;;;;;;28.75;22.75;;;;;2.27;99.82;100384.03;5062340;28;45779;-73
2022/12/13 10:00:48;;;;;;;;;24.50;17.00;;;;;2.27;99.52;100382.31;5040391;28;45980;-73
2022/12/13 10:03:15;;;;;;;;;25.00;19.75;;;;;2.33;100.00;100386.84;5049860;28;45330;-73
2022/12/13 10:05:44;;;;;;;;;24.50;17.25;;;;;2.35;99.58;100382.63;5053348;28;45220;-73
2022/12/13 10:08:21;;;;;;;;;28.00;24.00;;;;;2.39;99.56;100383.59;5044471;28;47073;-71
2022/12/13 10:10:48;;;;;;;;;23.00;17.00;;;;;2.39;99.91;100391.41;5037069;28;46069;-73
2022/12/13 10:13:14;;;;;;;;;21.50;20.25;;;;;2.45;99.60;100389.03;5035663;28;45571;-71
2022/12/13 10:15:40;;;;;;;;;27.00;20.25;;;;;2.48;99.39;100394.34;5054189;28;45506;-73
2022/12/13 10:18:09;;;;;;;;;23.50;16.00;;;;;2.47;99.19;100385.66;5043337;28;45616;-72
2022/12/13 10:20:35;;;;;;;;;30.25;22.00;;;;;2.52;99.75;100383.22;5030027;28;47393;-72
2022/12/13 10:23:01;;;;;;;;;21.75;20.50;;;;;2.54;99.26;100384.16;5040033;28;45614;-72
2022/12/13 10:26:02;;;;;;;;;25.50;18.00;;;;;2.60;99.24;100380.03;5056209;28;45829;-72
2022/12/13 10:28:32;;;;;;;;;20.50;12.00;;;;;2.62;99.05;100382.72;4960206;28;45527;-72
2022/12/13 10:30:58;;;;;;;;;25.50;17.00;;;;;2.66;98.61;100378.47;5042938;28;46713;-72
2022/12/13 10:33:27;;;;;;;;;25.75;14.75;;;;;2.63;98.72;100369.72;5058387;28;45409;-71
2022/12/13 10:36:05;;;;;;;;;20.75;19.50;;;;;2.70;98.92;100380.38;5057136;28;45515;-74
2022/12/13 10:38:34;;;;;;;;;25.00;19.00;;;;;2.68;98.49;100369.91;5055639;28;47165;-71
2022/12/13 10:41:00;;;;;;;;;25.75;19.25;;;;;2.71;98.24;100361.28;5054295;28;46367;-73
2022/12/13 10:43:26;;;;;;;;;27.25;21.75;;;;;2.74;98.09;100362.28;5058285;28;45474;-73
2022/12/13 10:45:54;;;;;;;;;25.75;25.00;;;;;2.79;97.76;100370.28;5037620;28;45459;-73
2022/12/13 10:48:22;;;;;;;;;29.75;22.00;;;;;2.79;97.87;100372.88;5056328;28;45415;-73
2022/12/13 10:50:57;;;;;;;;;18.50;18.50;;;;;2.83;97.78;100365.22;5042952;28;46710;-74
2022/12/13 10:53:27;;;;;;;;;25.75;20.25;;;;;2.89;97.73;100362.81;5058082;28;45380;-73
2022/12/13 10:55:54;;;;;;;;;21.75;15.25;;;;;2.92;97.50;100359.41;5037619;28;45418;-73
2022/12/13 10:58:20;;;;;;;;;27.00;20.50;;;;;2.98;97.96;100367.44;5055811;28;45372;-72
2022/12/13 11:00:46;;;;;;;;;25.50;20.75;;;;;3.03;97.76;100352.84;5056640;28;47927;-73
2022/12/13 11:03:28;;;;;;;;;24.75;17.00;;;;;3.08;97.66;100342.56;5055397;28;45450;-73
2022/12/13 11:06:14;;;;;;;;;26.00;21.75;;;;;3.10;97.05;100336.56;5050868;28;45458;-73
2022/12/13 11:08:40;;;;;;;;;28.75;20.25;;;;;3.10;96.81;100323.53;5057705;28;45554;-73
2022/12/13 11:11:07;;;;;;;;;23.00;18.50;;;;;3.10;96.68;100317.44;5038588;28;45808;-74
2022/12/13 11:13:39;;;;;;;;;24.75;18.50;;;;;3.08;96.47;100296.50;5038600;28;45404;-73
2022/12/13 11:16:24;;;;;;;;;27.50;19.75;;;;;3.13;96.70;100307.97;5039217;28;45418;-74
2022/12/13 11:18:53;;;;;;;;;18.50;16.75;;;;;3.15;96.25;100308.03;5022265;28;45884;-73
2022/12/13 11:21:29;;;;;;;;;24.25;21.00;;;;;3.19;96.26;100309.00;5056073;28;46505;-73